Please enter the email address associated with your User account. Your username will be emailed to the email address on file.

METAR TAF

[Source: ADDS]
METAR
LFCR 200330Z AUTO 03004KT CAVOK M01/M07 Q1031 NOSIG =
LFCR 192300Z 2000/2024 03009KT CAVOK LFBA 200330Z AUTO 29006KT CAVOK M00/M03 Q1035 =
LFBA 191700Z 1918/2003 01010KT CAVOK BECMG 2001/2003 30004KT LFSL 200330Z AUTO 03012KT 360V060 CAVOK 03/M04 Q1034 NOSIG =
LFSL 200200Z 2003/2012 03010KT CAVOK LFLW 200330Z AUTO 06010KT 030V100 9999 ////// 00/M06 Q1031 =
TAF
LFCR 192300Z 2000/2024 03009KT CAVOK =
LFBA 191700Z 1918/2003 01010KT CAVOK BECMG 2001/2003 30004KT =
LFSL 200200Z 2003/2012 03010KT CAVOK =
SR / SS: 07:23 / 16:46 UTC (LFCC 2020-01-20)